createdAt,value
2019-03-09T00:00:08.030Z,178.70
2019-03-09T00:02:36.615Z,186.87
2019-03-09T00:05:05.695Z,200.57
2019-03-09T00:07:34.233Z,188.37
2019-03-09T00:10:02.806Z,218.80
2019-03-09T00:12:31.366Z,196.33
2019-03-09T00:14:59.727Z,183.90
2019-03-09T00:17:28.294Z,185.77
2019-03-09T00:19:57.551Z,185.60
2019-03-09T00:22:26.150Z,186.80
2019-03-09T00:24:56.306Z,185.30
2019-03-09T00:27:29.779Z,195.77
2019-03-09T00:30:07.210Z,182.70
2019-03-09T00:32:35.406Z,196.90
2019-03-09T00:35:04.140Z,186.00
2019-03-09T00:37:32.741Z,176.43
2019-03-09T00:40:01.728Z,175.73
2019-03-09T00:42:30.297Z,182.97
2019-03-09T00:44:58.915Z,210.47
2019-03-09T00:47:27.181Z,164.80
2019-03-09T00:49:55.685Z,195.67
2019-03-09T00:52:24.298Z,176.73
2019-03-09T00:54:52.614Z,180.67
2019-03-09T00:57:21.597Z,172.80
2019-03-09T00:59:56.662Z,180.83
2019-03-09T01:02:25.232Z,180.47
2019-03-09T01:04:53.727Z,182.53
2019-03-09T01:07:22.396Z,182.87
2019-03-09T01:09:50.958Z,179.93
2019-03-09T01:12:19.527Z,187.60
2019-03-09T01:14:47.883Z,176.40
2019-03-09T01:17:16.522Z,198.77
2019-03-09T01:19:45.098Z,179.87
2019-03-09T01:22:13.398Z,189.33
2019-03-09T01:24:41.966Z,186.10
2019-03-09T01:27:10.542Z,200.03
2019-03-09T01:29:39.166Z,185.97
2019-03-09T01:32:07.654Z,178.73
2019-03-09T01:34:36.289Z,183.97
2019-03-09T01:37:04.824Z,191.53
2019-03-09T01:39:33.399Z,190.37
2019-03-09T01:42:01.654Z,192.87
2019-03-09T01:44:30.195Z,195.73
2019-03-09T01:46:58.697Z,182.77
2019-03-09T01:49:27.022Z,192.53
2019-03-09T01:51:55.572Z,198.67
2019-03-09T01:54:24.067Z,182.73
2019-03-09T01:56:52.711Z,189.63
2019-03-09T01:59:21.669Z,177.33
2019-03-09T02:01:51.151Z,195.00
2019-03-09T02:04:19.409Z,186.10
2019-03-09T02:06:48.005Z,181.47
2019-03-09T02:09:16.502Z,187.13
2019-03-09T02:11:45.004Z,190.23
2019-03-09T02:14:13.540Z,187.83
2019-03-09T02:16:42.117Z,188.80
2019-03-09T02:19:10.379Z,182.37
2019-03-09T02:21:39.032Z,183.83
2019-03-09T02:24:07.613Z,181.33
2019-03-09T02:26:36.118Z,197.53
2019-03-09T02:29:04.722Z,184.10
2019-03-09T02:31:33.057Z,185.13
2019-03-09T02:34:01.556Z,189.17
2019-03-09T02:36:29.860Z,194.27
2019-03-09T02:39:02.799Z,193.07
2019-03-09T02:41:31.364Z,170.57
2019-03-09T02:43:59.978Z,186.03
2019-03-09T02:46:28.476Z,181.90
2019-03-09T02:48:56.980Z,180.77
2019-03-09T02:51:25.889Z,192.47
2019-03-09T02:53:54.448Z,177.00
2019-03-09T02:56:22.947Z,164.93
2019-03-09T02:58:51.491Z,183.30
2019-03-09T03:01:39.435Z,193.73
2019-03-09T03:04:07.995Z,188.37
2019-03-09T03:06:36.259Z,185.50
2019-03-09T03:09:05.509Z,197.83
2019-03-09T03:11:34.054Z,187.07
2019-03-09T03:14:02.696Z,188.77
2019-03-09T03:16:31.535Z,196.10
2019-03-09T03:19:00.073Z,185.17
2019-03-09T03:21:28.639Z,180.23
2019-03-09T03:23:57.288Z,184.77
2019-03-09T03:26:25.892Z,191.87
2019-03-09T03:28:54.147Z,179.17
2019-03-09T03:31:22.652Z,179.60
2019-03-09T03:33:51.338Z,185.70
2019-03-09T03:36:19.909Z,186.07
2019-03-09T03:38:48.461Z,174.83
2019-03-09T03:41:17.023Z,187.80
2019-03-09T03:43:45.679Z,193.50
2019-03-09T03:46:14.242Z,185.23
2019-03-09T03:48:42.775Z,184.63
2019-03-09T03:51:11.347Z,178.63
2019-03-09T03:53:39.922Z,185.17
2019-03-09T03:56:08.534Z,181.73
2019-03-09T03:58:37.110Z,185.90
2019-03-09T04:01:06.007Z,175.33
2019-03-09T04:03:34.619Z,174.93
2019-03-09T04:06:04.052Z,186.23
2019-03-09T04:08:32.552Z,181.60
2019-03-09T04:11:01.166Z,170.70
2019-03-09T04:13:29.347Z,206.53
2019-03-09T04:15:57.925Z,191.70
2019-03-09T04:18:26.542Z,188.13
2019-03-09T04:20:55.055Z,197.83
2019-03-09T04:23:23.699Z,192.70
2019-03-09T04:25:52.393Z,185.17
2019-03-09T04:28:20.884Z,188.37
2019-03-09T04:30:49.534Z,204.27
2019-03-09T04:33:18.203Z,179.73
2019-03-09T04:35:46.698Z,175.77
2019-03-09T04:38:15.698Z,163.97
2019-03-09T04:40:44.414Z,178.43
2019-03-09T04:43:13.005Z,176.90
2019-03-09T04:45:41.574Z,176.60
2019-03-09T04:48:10.117Z,191.57
2019-03-09T04:50:38.691Z,183.13
2019-03-09T04:53:07.331Z,182.80
2019-03-09T04:55:35.931Z,181.87
2019-03-09T04:58:04.429Z,176.23
2019-03-09T05:00:32.996Z,180.87
2019-03-09T05:03:01.593Z,192.33
2019-03-09T05:05:30.159Z,181.03
2019-03-09T05:08:02.395Z,182.37
2019-03-09T05:10:34.133Z,168.93
2019-03-09T05:13:12.051Z,167.40
2019-03-09T05:15:40.663Z,195.50
2019-03-09T05:18:09.226Z,195.83
2019-03-09T05:20:38.803Z,172.27
2019-03-09T05:23:07.418Z,178.03
2019-03-09T05:25:35.922Z,196.87
2019-03-09T05:28:04.491Z,175.37
2019-03-09T05:30:46.063Z,177.97
2019-03-09T05:33:15.010Z,175.83
2019-03-09T05:35:43.593Z,170.30
2019-03-09T05:38:12.206Z,169.93
2019-03-09T05:40:40.753Z,190.30
2019-03-09T05:43:09.322Z,181.63
2019-03-09T05:45:37.867Z,195.10
2019-03-09T05:48:06.431Z,185.33
2019-03-09T05:50:34.999Z,191.23
2019-03-09T05:53:16.581Z,181.93
2019-03-09T05:55:45.140Z,173.50
2019-03-09T05:58:13.650Z,186.80
2019-03-09T06:00:43.033Z,180.33
2019-03-09T06:03:11.532Z,187.67
2019-03-09T06:05:45.019Z,185.97
2019-03-09T06:08:13.380Z,188.37
2019-03-09T06:10:42.023Z,181.00
2019-03-09T06:13:10.583Z,183.00
2019-03-09T06:15:39.262Z,191.13
2019-03-09T06:18:07.519Z,178.17
2019-03-09T06:20:36.008Z,184.40
2019-03-09T06:23:04.613Z,176.63
2019-03-09T06:25:32.937Z,186.93
2019-03-09T06:28:01.604Z,182.90
2019-03-09T06:30:30.194Z,178.37
2019-03-09T06:33:18.095Z,172.17
2019-03-09T06:35:48.983Z,167.43
2019-03-09T06:38:26.166Z,166.77
2019-03-09T06:41:02.702Z,166.27
2019-03-09T06:43:24.941Z,164.07
2019-03-09T06:45:53.450Z,164.33
2019-03-09T06:48:21.748Z,167.90
2019-03-09T06:50:50.311Z,161.70
2019-03-09T06:53:18.956Z,168.77
2019-03-09T06:55:47.258Z,171.93
2019-03-09T06:58:15.582Z,172.47
2019-03-09T07:00:44.561Z,166.90
2019-03-09T07:03:13.179Z,179.10
2019-03-09T07:05:41.744Z,168.33
2019-03-09T07:08:10.390Z,180.83
2019-03-09T07:10:38.922Z,190.50
2019-03-09T07:13:07.481Z,174.73
2019-03-09T07:15:38.239Z,172.73
2019-03-09T07:18:07.529Z,169.83
2019-03-09T07:20:37.699Z,175.10
2019-03-09T07:23:06.251Z,178.20
2019-03-09T07:25:34.782Z,174.47
2019-03-09T07:28:05.251Z,171.00
2019-03-09T07:30:33.508Z,182.63
2019-03-09T07:33:02.205Z,170.17
2019-03-09T07:35:30.446Z,175.67
2019-03-09T07:37:58.783Z,172.43
2019-03-09T07:40:27.446Z,172.13
2019-03-09T07:42:56.087Z,178.13
2019-03-09T07:45:24.659Z,184.20
2019-03-09T07:47:53.202Z,174.10
2019-03-09T07:50:23.398Z,184.03
2019-03-09T07:52:51.574Z,186.27
2019-03-09T07:55:20.679Z,180.90
2019-03-09T07:57:49.340Z,180.77
2019-03-09T08:00:21.604Z,186.17
2019-03-09T08:02:50.195Z,184.90
2019-03-09T08:05:18.711Z,179.73
2019-03-09T08:07:47.292Z,177.80
2019-03-09T08:10:22.691Z,176.20
2019-03-09T08:12:51.253Z,186.37
2019-03-09T08:15:20.191Z,185.13
2019-03-09T08:17:48.737Z,18.20
2019-03-09T08:20:18.577Z,7.97
2019-03-09T08:22:47.223Z,15.23
2019-03-09T08:25:44.347Z,122.63
2019-03-09T08:28:13.038Z,50.27
2019-03-09T08:30:41.675Z,18.77
2019-03-09T08:33:11.288Z,15.70
2019-03-09T08:35:39.938Z,12.67
2019-03-09T08:38:08.448Z,17.33
2019-03-09T08:40:37.137Z,11.03
2019-03-09T08:43:05.765Z,21.27
2019-03-09T08:45:34.784Z,19.03
2019-03-09T08:48:03.384Z,21.10
2019-03-09T08:50:31.955Z,8.27
2019-03-09T08:53:00.555Z,14.17
2019-03-09T08:55:29.161Z,24.60
2019-03-09T08:57:57.821Z,11.97
2019-03-09T09:00:31.342Z,20.73
2019-03-09T09:03:00.133Z,16.17
2019-03-09T09:05:28.888Z,20.73
2019-03-09T09:07:57.543Z,19.27
2019-03-09T09:10:26.209Z,20.07
2019-03-09T09:12:54.902Z,16.53
2019-03-09T09:15:23.644Z,35.77
2019-03-09T09:17:52.683Z,20.97
2019-03-09T09:20:23.583Z,24.90
2019-03-09T09:22:53.725Z,25.07
2019-03-09T09:25:22.405Z,20.60
2019-03-09T09:27:52.017Z,15.33
2019-03-09T09:30:23.743Z,18.70
2019-03-09T09:32:52.408Z,14.57
2019-03-09T09:35:21.045Z,14.50
2019-03-09T09:37:49.319Z,138.63
2019-03-09T09:40:19.275Z,139.20
2019-03-09T09:42:47.520Z,182.37
2019-03-09T09:45:15.858Z,187.93
2019-03-09T09:47:44.167Z,192.00
2019-03-09T09:50:15.835Z,194.73
2019-03-09T09:52:44.471Z,199.30
2019-03-09T09:55:15.635Z,187.17
2019-03-09T09:57:44.198Z,189.23
2019-03-09T10:00:14.030Z,191.43
2019-03-09T10:02:42.684Z,200.10
2019-03-09T10:05:11.710Z,183.97
2019-03-09T10:07:39.975Z,183.53
2019-03-09T10:10:09.865Z,128.47
2019-03-09T10:12:38.198Z,122.13
2019-03-09T10:15:13.756Z,120.77
2019-03-09T10:17:42.013Z,119.10
2019-03-09T10:20:10.885Z,120.20
2019-03-09T10:22:39.209Z,117.22
2019-03-09T10:25:08.584Z,110.75
2019-03-09T10:27:36.779Z,114.30
2019-03-09T10:30:06.648Z,119.70
2019-03-09T10:32:35.008Z,114.30
2019-03-09T10:35:03.344Z,109.83
2019-03-09T10:37:31.997Z,117.65
2019-03-09T10:40:00.328Z,117.20
2019-03-09T10:42:28.630Z,112.95
2019-03-09T10:44:56.930Z,107.60
2019-03-09T10:47:25.260Z,90.50
2019-03-09T10:49:53.607Z,123.75
2019-03-09T10:52:21.914Z,124.50
2019-03-09T10:54:50.277Z,122.30
2019-03-09T10:57:18.603Z,117.40
2019-03-09T10:59:47.047Z,115.42
2019-03-09T11:02:15.311Z,113.50
2019-03-09T11:04:43.582Z,112.88
2019-03-09T11:07:11.887Z,115.28
2019-03-09T11:12:05.538Z,149.77
2019-03-09T11:14:34.139Z,183.93
2019-03-09T11:19:58.507Z,139.33
2019-03-09T11:22:27.424Z,150.93
2019-03-09T11:25:03.071Z,136.13
2019-03-09T11:27:26.183Z,133.07
2019-03-09T11:29:54.821Z,140.17
2019-03-09T11:32:23.469Z,137.00
2019-03-09T11:34:52.001Z,145.00
2019-03-09T11:37:20.641Z,147.23
2019-03-09T11:39:49.019Z,141.87
2019-03-09T11:42:17.618Z,144.93
2019-03-09T11:44:46.181Z,159.23
2019-03-09T11:47:14.757Z,143.43
2019-03-09T11:49:43.354Z,144.30
2019-03-09T11:52:19.661Z,143.00
2019-03-09T11:54:41.819Z,141.90
2019-03-09T11:57:10.288Z,151.50
2019-03-09T11:59:38.862Z,143.60
2019-03-09T12:02:07.549Z,156.40
2019-03-09T12:04:46.291Z,157.67
2019-03-09T12:07:06.513Z,151.63
2019-03-09T12:09:34.777Z,148.33
2019-03-09T12:12:03.666Z,150.90
2019-03-09T12:14:32.520Z,152.87
2019-03-09T12:17:01.512Z,163.17
2019-03-09T12:19:30.140Z,158.20
2019-03-09T12:21:58.406Z,158.97
2019-03-09T12:24:28.845Z,159.87
2019-03-09T12:26:57.357Z,148.00
2019-03-09T12:29:27.010Z,150.17
2019-03-09T12:31:55.552Z,155.40
2019-03-09T12:34:24.159Z,151.40
2019-03-09T12:36:52.667Z,150.23
2019-03-09T12:39:20.873Z,155.07
2019-03-09T12:41:49.546Z,159.73
2019-03-09T12:44:18.123Z,156.67
2019-03-09T12:46:46.696Z,153.03
2019-03-09T12:49:15.334Z,157.17
2019-03-09T12:51:43.588Z,156.90
2019-03-09T12:54:12.086Z,159.50
2019-03-09T12:56:40.690Z,153.93
2019-03-09T12:59:09.339Z,154.40
2019-03-09T13:01:38.093Z,162.83
2019-03-09T13:04:10.606Z,152.07
2019-03-09T13:06:39.229Z,155.17
2019-03-09T13:09:07.560Z,153.70
2019-03-09T13:11:36.080Z,152.60
2019-03-09T13:14:04.804Z,159.40
2019-03-09T13:16:33.043Z,153.17
2019-03-09T13:19:01.657Z,160.87
2019-03-09T13:21:31.195Z,156.53
2019-03-09T13:23:59.892Z,151.97
2019-03-09T13:26:28.501Z,158.27
2019-03-09T13:28:57.181Z,158.67
2019-03-09T13:31:25.786Z,158.37
2019-03-09T13:33:54.376Z,167.43
2019-03-09T13:36:22.706Z,156.47
2019-03-09T13:38:51.285Z,154.17
2019-03-09T13:41:19.966Z,157.63
2019-03-09T13:43:48.623Z,162.60
2019-03-09T13:46:17.268Z,154.17
2019-03-09T13:48:45.945Z,156.53
2019-03-09T13:51:14.508Z,160.70
2019-03-09T13:53:43.156Z,161.13
2019-03-09T13:56:11.842Z,158.10
2019-03-09T13:58:40.177Z,167.07
2019-03-09T14:01:08.430Z,160.63
2019-03-09T14:03:37.049Z,163.60
2019-03-09T14:06:05.706Z,164.93
2019-03-09T14:08:34.298Z,156.33
2019-03-09T14:11:02.893Z,158.67
2019-03-09T14:13:31.545Z,162.50
2019-03-09T14:15:59.799Z,162.60
2019-03-09T14:18:28.113Z,161.50
2019-03-09T14:20:56.432Z,162.37
2019-03-09T14:23:25.604Z,162.30
2019-03-09T14:25:53.968Z,157.27
2019-03-09T14:28:22.246Z,166.13
2019-03-09T14:30:50.886Z,159.73
2019-03-09T14:33:20.694Z,161.43
2019-03-09T14:35:49.426Z,161.33
2019-03-09T14:38:17.935Z,164.87
2019-03-09T14:40:46.533Z,157.00
2019-03-09T14:43:14.892Z,163.20
2019-03-09T14:45:43.388Z,158.87
2019-03-09T14:48:11.996Z,155.07
2019-03-09T14:50:40.575Z,152.40
